Time,TemperatureF,DewpointF,PressureIn,WindDirection,WindDirectionDegrees,WindSpeedMPH,WindSpeedGustMPH,Humidity,HourlyPrecipIn,Conditions,Clouds,dailyrainin,SoftwareType,DateUTC
2013-06-17 00:00:00,64.5,60.5,29.81,WNW,293,3.0,5.0,87,0.00,FEW,,0.00,WeatherDisplay:10.37,2013-06-17 04:00:00,
2013-06-17 00:10:00,63.9,60.0,29.82,West,280,0.0,3.0,87,0.00,FEW,,0.00,WeatherDisplay:10.37,2013-06-17 04:10:00,
2013-06-17 00:30:00,62.2,59.2,29.81,West,276,0.0,3.0,90,0.00,FEW,,0.00,WeatherDisplay:10.37,2013-06-17 04:30:00,
2013-06-17 00:40:00,61.4,58.7,29.81,West,276,0.0,0.0,91,0.00,FEW,,0.00,WeatherDisplay:10.37,2013-06-17 04:40:00,
2013-06-17 00:50:00,60.6,58.0,29.82,West,276,0.0,2.0,91,0.00,FEW,,0.00,WeatherDisplay:10.37,2013-06-17 04:50:00,
2013-06-17 01:00:00,60.3,58.0,29.82,West,276,0.0,0.0,92,0.00,FEW,,0.00,WeatherDisplay:10.37,2013-06-17 05:00:00,
2013-06-17 01:10:00,59.9,57.9,29.81,West,276,0.0,0.0,93,0.00,FEW,,0.00,WeatherDisplay:10.37,2013-06-17 05:10:00,
2013-06-17 01:20:00,59.8,57.8,29.82,West,276,0.0,0.0,93,0.00,FEW,,0.00,WeatherDisplay:10.37,2013-06-17 05:20:00,
2013-06-17 01:30:00,60.2,58.5,29.82,West,276,0.0,2.0,94,0.00,FEW,,0.00,WeatherDisplay:10.37,2013-06-17 05:30:00,
2013-06-17 01:40:00,60.5,58.8,29.82,West,276,0.0,2.0,94,0.00,FEW,,0.00,WeatherDisplay:10.37,2013-06-17 05:40:00,
2013-06-17 01:50:00,61.0,59.3,29.82,West,276,0.0,3.0,94,0.00,FEW,,0.00,WeatherDisplay:10.37,2013-06-17 05:50:00,
2013-06-17 02:00:00,61.3,59.6,29.81,West,276,0.0,2.0,94,0.01,RA,,0.01,WeatherDisplay:10.37,2013-06-17 06:00:00,
2013-06-17 02:10:00,61.6,59.9,29.81,West,276,0.0,0.0,94,0.00,BKN,,0.01,WeatherDisplay:10.37,2013-06-17 06:10:00,
2013-06-17 02:20:00,61.6,59.8,29.81,West,276,0.0,2.0,94,0.00,BKN,,0.01,WeatherDisplay:10.37,2013-06-17 06:20:00,
2013-06-17 02:30:00,60.9,59.2,29.81,West,276,0.0,2.0,94,0.00,BKN,,0.01,WeatherDisplay:10.37,2013-06-17 06:30:00,
2013-06-17 02:40:00,60.5,58.8,29.81,West,276,0.0,0.0,94,0.00,BKN,,0.01,WeatherDisplay:10.37,2013-06-17 06:40:00,
2013-06-17 02:50:00,59.9,58.2,29.81,West,276,0.0,0.0,94,0.00,BKN,,0.01,WeatherDisplay:10.37,2013-06-17 06:50:00,
2013-06-17 03:00:00,59.4,57.7,29.81,West,276,0.0,0.0,94,0.00,BKN,,0.01,WeatherDisplay:10.37,2013-06-17 07:00:00,
2013-06-17 03:10:00,58.9,57.2,29.81,West,276,0.0,0.0,94,0.00,BKN,,0.01,WeatherDisplay:10.37,2013-06-17 07:10:00,
2013-06-17 03:20:00,59.1,57.6,29.81,West,276,0.0,0.0,95,0.00,BKN,,0.01,WeatherDisplay:10.37,2013-06-17 07:20:00,
2013-06-17 03:30:00,59.3,57.9,29.81,West,276,0.0,0.0,95,0.00,BKN,,0.01,WeatherDisplay:10.37,2013-06-17 07:30:00,
2013-06-17 03:40:00,59.2,57.8,29.81,West,276,0.0,2.0,95,0.00,BKN,,0.01,WeatherDisplay:10.37,2013-06-17 07:40:00,
2013-06-17 03:50:00,58.9,57.5,29.81,West,276,0.0,0.0,95,0.00,BKN,,0.01,WeatherDisplay:10.37,2013-06-17 07:50:00,
2013-06-17 04:00:00,59.0,57.6,29.82,West,276,0.0,0.0,95,0.00,BKN,,0.01,WeatherDisplay:10.37,2013-06-17 08:00:00,
2013-06-17 04:10:00,58.8,57.4,29.82,West,276,0.0,0.0,95,0.00,FEW,,0.01,WeatherDisplay:10.37,2013-06-17 08:10:00,
2013-06-17 04:20:00,58.5,57.1,29.82,West,276,0.0,0.0,95,0.00,FEW,,0.01,WeatherDisplay:10.37,2013-06-17 08:20:00,
2013-06-17 04:30:00,58.3,56.9,29.83,West,276,0.0,0.0,95,0.00,FEW,,0.01,WeatherDisplay:10.37,2013-06-17 08:30:00,
2013-06-17 04:40:00,58.4,57.0,29.83,West,276,0.0,0.0,95,0.00,FEW,,0.01,WeatherDisplay:10.37,2013-06-17 08:40:00,
2013-06-17 04:50:00,58.1,56.7,29.83,West,276,0.0,0.0,95,0.00,FEW,,0.01,WeatherDisplay:10.37,2013-06-17 08:50:00,
2013-06-17 05:00:00,58.2,56.7,29.82,West,276,0.0,0.0,95,0.00,FEW,,0.01,WeatherDisplay:10.37,2013-06-17 09:00:00,
2013-06-17 05:10:00,58.1,56.7,29.82,West,276,0.0,0.0,95,0.00,FEW,,0.01,WeatherDisplay:10.37,2013-06-17 09:10:00,
2013-06-17 05:20:00,57.9,56.5,29.83,West,276,0.0,0.0,95,0.00,FEW,,0.01,WeatherDisplay:10.37,2013-06-17 09:20:00,
2013-06-17 05:30:00,58.0,56.8,29.83,West,276,0.0,0.0,96,0.00,FEW,,0.01,WeatherDisplay:10.37,2013-06-17 09:30:00,
2013-06-17 05:40:00,58.3,57.2,29.83,West,276,0.0,2.0,96,0.00,FEW,,0.01,WeatherDisplay:10.37,2013-06-17 09:40:00,
2013-06-17 05:50:00,59.1,58.0,29.83,West,276,0.0,2.0,96,0.00,FEW,,0.01,WeatherDisplay:10.37,2013-06-17 09:50:00,
2013-06-17 06:00:00,59.8,58.7,29.83,West,276,0.0,2.0,96,0.00,FEW,,0.01,WeatherDisplay:10.37,2013-06-17 10:00:00,
2013-06-17 06:10:00,60.0,58.9,29.84,West,276,0.0,2.0,96,0.00,CLR,,0.01,WeatherDisplay:10.37,2013-06-17 10:10:00,
2013-06-17 06:20:00,60.5,59.3,29.83,West,276,0.0,0.0,96,0.00,CLR,,0.01,WeatherDisplay:10.37,2013-06-17 10:20:00,
2013-06-17 06:30:00,60.7,59.6,29.83,West,276,0.0,2.0,96,0.00,CLR,,0.01,WeatherDisplay:10.37,2013-06-17 10:30:00,
2013-06-17 06:40:00,61.2,60.0,29.84,West,276,0.0,0.0,96,0.00,CLR,,0.01,WeatherDisplay:10.37,2013-06-17 10:40:00,
2013-06-17 06:50:00,62.0,60.6,29.84,West,276,0.0,0.0,95,0.00,CLR,,0.01,WeatherDisplay:10.37,2013-06-17 10:50:00,
2013-06-17 07:00:00,63.1,61.6,29.84,West,276,0.0,2.0,95,0.00,CLR,,0.01,WeatherDisplay:10.37,2013-06-17 11:00:00,
2013-06-17 07:10:00,64.1,62.0,29.85,West,276,0.0,2.0,93,0.00,SCT,,0.01,WeatherDisplay:10.37,2013-06-17 11:10:00,
2013-06-17 07:20:00,65.3,62.3,29.85,WSW,248,1.0,3.0,90,0.00,SCT,,0.01,WeatherDisplay:10.37,2013-06-17 11:20:00,
2013-06-17 07:30:00,66.2,62.9,29.85,WSW,248,0.0,5.0,89,0.00,SCT,,0.01,WeatherDisplay:10.37,2013-06-17 11:30:00,
2013-06-17 07:40:00,66.7,62.7,29.85,SW,223,2.0,5.0,87,0.00,SCT,,0.01,WeatherDisplay:10.37,2013-06-17 11:40:00,
2013-06-17 07:50:00,67.2,62.9,29.85,SSW,204,1.0,3.0,86,0.00,SCT,,0.01,WeatherDisplay:10.37,2013-06-17 11:50:00,
2013-06-17 08:00:00,67.6,62.9,29.85,South,182,1.0,6.0,85,0.00,SCT,,0.01,WeatherDisplay:10.37,2013-06-17 12:00:00,
2013-06-17 08:10:00,68.5,63.1,29.85,SW,219,1.0,3.0,83,0.00,SCT,,0.01,WeatherDisplay:10.37,2013-06-17 12:10:00,
2013-06-17 08:20:00,68.8,63.1,29.85,South,185,3.0,6.0,82,0.00,SCT,,0.01,WeatherDisplay:10.37,2013-06-17 12:20:00,
2013-06-17 08:30:00,69.7,64.0,29.85,South,181,1.0,6.0,82,0.00,SCT,,0.01,WeatherDisplay:10.37,2013-06-17 12:30:00,
2013-06-17 08:40:00,70.1,64.4,29.85,South,182,1.0,6.0,82,0.00,SCT,,0.01,WeatherDisplay:10.37,2013-06-17 12:40:00,
2013-06-17 08:50:00,71.0,64.5,29.85,SSW,195,1.0,5.0,80,0.00,SCT,,0.01,WeatherDisplay:10.37,2013-06-17 12:50:00,
2013-06-17 09:00:00,71.3,64.4,29.85,South,185,1.0,8.0,79,0.00,SCT,,0.01,WeatherDisplay:10.37,2013-06-17 13:00:00,
2013-06-17 09:10:00,72.2,64.6,29.85,South,180,2.0,5.0,77,0.00,SCT,,0.01,WeatherDisplay:10.37,2013-06-17 13:10:00,
2013-06-17 09:20:00,72.2,64.9,29.85,South,191,5.0,9.0,78,0.00,SCT,,0.01,WeatherDisplay:10.37,2013-06-17 13:20:00,
2013-06-17 09:30:00,73.1,65.1,29.85,SSE,165,2.0,6.0,76,0.00,SCT,,0.01,WeatherDisplay:10.37,2013-06-17 13:30:00,
2013-06-17 09:40:00,74.2,66.1,29.85,SSE,159,1.0,5.0,76,0.00,SCT,,0.01,WeatherDisplay:10.37,2013-06-17 13:40:00,
2013-06-17 09:50:00,74.7,64.6,29.84,SSW,210,3.0,5.0,71,0.00,SCT,,0.01,WeatherDisplay:10.37,2013-06-17 13:50:00,
2013-06-17 10:00:00,74.3,64.7,29.84,SSW,206,2.0,6.0,72,0.00,SCT,,0.01,WeatherDisplay:10.37,2013-06-17 14:00:00,
2013-06-17 10:10:00,74.5,64.9,29.84,SSW,213,3.0,8.0,72,0.00,SCT,,0.01,WeatherDisplay:10.37,2013-06-17 14:10:00,
2013-06-17 10:20:00,75.1,64.6,29.83,SW,233,1.0,3.0,70,0.00,SCT,,0.01,WeatherDisplay:10.37,2013-06-17 14:20:00,
2013-06-17 10:30:00,75.8,65.4,29.83,South,173,3.0,6.0,70,0.00,SCT,,0.01,WeatherDisplay:10.37,2013-06-17 14:30:00,
2013-06-17 10:40:00,75.8,64.9,29.83,SSW,208,1.0,6.0,69,0.00,SCT,,0.01,WeatherDisplay:10.37,2013-06-17 14:40:00,
2013-06-17 10:50:00,77.0,64.8,29.82,South,175,2.0,6.0,66,0.00,SCT,,0.01,WeatherDisplay:10.37,2013-06-17 14:50:00,
2013-06-17 11:00:00,76.4,64.2,29.82,SSW,192,1.0,5.0,66,0.00,SCT,,0.01,WeatherDisplay:10.37,2013-06-17 15:00:00,
2013-06-17 11:10:00,77.1,64.9,29.82,South,189,0.0,3.0,66,0.00,SCT,,0.01,WeatherDisplay:10.37,2013-06-17 15:10:00,
2013-06-17 11:20:00,77.8,66.0,29.82,NW,320,1.0,5.0,67,0.00,SCT,,0.01,WeatherDisplay:10.37,2013-06-17 15:20:00,
2013-06-17 11:30:00,78.4,65.7,29.81,NE,54,2.0,6.0,65,0.00,SCT,,0.01,WeatherDisplay:10.37,2013-06-17 15:30:00,
2013-06-17 11:40:00,78.0,63.9,29.81,SSE,152,1.0,5.0,62,0.00,SCT,,0.01,WeatherDisplay:10.37,2013-06-17 15:40:00,
2013-06-17 11:50:00,79.5,65.4,29.81,West,261,1.0,5.0,62,0.00,SCT,,0.01,WeatherDisplay:10.37,2013-06-17 15:50:00,
2013-06-17 12:00:00,79.2,64.1,29.81,West,273,6.0,8.0,60,0.00,SCT,,0.01,WeatherDisplay:10.37,2013-06-17 16:00:00,
2013-06-17 12:10:00,79.5,65.4,29.81,WNW,302,6.0,8.0,62,0.00,BKN,,0.01,WeatherDisplay:10.37,2013-06-17 16:10:00,
2013-06-17 12:20:00,80.3,65.1,29.81,North,7,3.0,6.0,60,0.00,BKN,,0.01,WeatherDisplay:10.37,2013-06-17 16:20:00,
2013-06-17 12:30:00,81.1,63.9,29.81,NW,310,10.0,10.0,56,0.00,BKN,,0.01,WeatherDisplay:10.37,2013-06-17 16:30:00,
2013-06-17 12:40:00,82.4,65.1,29.80,WNW,284,5.0,9.0,56,0.00,BKN,,0.01,WeatherDisplay:10.37,2013-06-17 16:40:00,
2013-06-17 12:50:00,81.7,62.9,29.80,SSW,212,3.0,14.0,53,0.00,BKN,,0.01,WeatherDisplay:10.37,2013-06-17 16:50:00,
2013-06-17 13:00:00,81.7,63.5,29.80,WSW,258,6.0,10.0,54,0.00,BKN,,0.01,WeatherDisplay:10.37,2013-06-17 17:00:00,
2013-06-17 13:10:00,81.9,62.0,29.79,SW,225,10.0,12.0,51,0.00,SCT,,0.01,WeatherDisplay:10.37,2013-06-17 17:10:00,
2013-06-17 13:20:00,81.1,62.3,29.78,South,180,5.0,8.0,53,0.00,SCT,,0.01,WeatherDisplay:10.37,2013-06-17 17:20:00,
2013-06-17 13:30:00,81.4,63.7,29.78,SSW,200,1.0,8.0,55,0.00,SCT,,0.01,WeatherDisplay:10.37,2013-06-17 17:30:00,
2013-06-17 13:40:00,81.1,61.3,29.78,WSW,244,7.0,12.0,51,0.00,SCT,,0.01,WeatherDisplay:10.37,2013-06-17 17:40:00,
2013-06-17 13:50:00,80.6,62.4,29.77,SSW,210,5.0,12.0,54,0.00,SCT,,0.01,WeatherDisplay:10.37,2013-06-17 17:50:00,
2013-06-17 14:00:00,79.8,61.7,29.77,South,179,1.0,5.0,54,0.00,SCT,,0.01,WeatherDisplay:10.37,2013-06-17 18:00:00,
2013-06-17 14:10:00,78.8,64.2,29.77,SSW,202,0.0,5.0,61,0.02,RA,,0.03,WeatherDisplay:10.37,2013-06-17 18:10:00,
2013-06-17 14:20:00,73.2,65.2,29.78,WNW,299,0.0,14.0,76,0.03,RA,,0.06,WeatherDisplay:10.37,2013-06-17 18:20:00,
2013-06-17 14:30:00,71.1,66.4,29.78,West,273,0.0,8.0,85,0.00,BKN,,0.06,WeatherDisplay:10.37,2013-06-17 18:30:00,
2013-06-17 14:40:00,73.7,69.3,29.77,West,269,0.0,2.0,86,0.00,BKN,,0.06,WeatherDisplay:10.37,2013-06-17 18:40:00,
2013-06-17 14:50:00,74.4,70.3,29.79,West,269,0.0,2.0,87,0.00,BKN,,0.06,WeatherDisplay:10.37,2013-06-17 18:50:00,
2013-06-17 15:00:00,73.3,69.2,29.79,West,269,0.0,2.0,87,0.00,BKN,,0.06,WeatherDisplay:10.37,2013-06-17 19:00:00,
2013-06-17 15:10:00,69.9,61.6,29.85,WNW,290,13.0,31.0,75,0.04,RA,,0.10,WeatherDisplay:10.37,2013-06-17 19:10:00,
2013-06-17 15:20:00,64.2,59.3,29.85,West,261,10.0,27.0,84,0.08,RA,,0.18,WeatherDisplay:10.37,2013-06-17 19:20:00,
2013-06-17 15:30:00,63.8,59.2,29.83,West,276,0.0,10.0,85,0.04,RA,,0.22,WeatherDisplay:10.37,2013-06-17 19:30:00,
2013-06-17 15:40:00,63.8,60.5,29.82,WNW,283,3.0,5.0,89,0.00,BKN,,0.22,WeatherDisplay:10.37,2013-06-17 19:40:00,
2013-06-17 15:50:00,64.2,61.5,29.82,NW,315,0.0,6.0,91,0.00,BKN,,0.22,WeatherDisplay:10.37,2013-06-17 19:50:00,
2013-06-17 16:00:00,64.8,62.4,29.83,WNW,291,1.0,5.0,92,0.00,BKN,,0.22,WeatherDisplay:10.37,2013-06-17 20:00:00,
2013-06-17 16:10:00,65.2,62.2,29.84,SW,234,2.0,5.0,90,0.00,-RA,,0.22,WeatherDisplay:10.37,2013-06-17 20:10:00,
2013-06-17 16:20:00,65.2,61.9,29.84,SW,235,0.0,3.0,89,0.00,-RA,,0.22,WeatherDisplay:10.37,2013-06-17 20:20:00,
2013-06-17 16:30:00,65.4,62.4,29.84,SW,233,0.0,3.0,90,0.00,-RA,,0.22,WeatherDisplay:10.37,2013-06-17 20:30:00,
2013-06-17 16:40:00,66.3,63.0,29.84,SW,218,0.0,5.0,89,0.00,-RA,,0.22,WeatherDisplay:10.37,2013-06-17 20:40:00,
2013-06-17 16:50:00,67.1,63.4,29.83,SSW,198,0.0,3.0,88,0.00,-RA,,0.22,WeatherDisplay:10.37,2013-06-17 20:50:00,
2013-06-17 17:00:00,68.1,64.0,29.83,SSW,198,0.0,2.0,87,0.00,-RA,,0.22,WeatherDisplay:10.37,2013-06-17 21:00:00,
2013-06-17 17:10:00,70.8,65.7,29.83,SSW,198,0.0,3.0,84,0.00,BKN,,0.22,WeatherDisplay:10.37,2013-06-17 21:10:00,
2013-06-17 17:20:00,70.2,64.8,29.83,SSE,161,1.0,5.0,83,0.00,BKN,,0.22,WeatherDisplay:10.37,2013-06-17 21:20:00,
2013-06-17 17:30:00,70.3,64.9,29.83,South,179,2.0,5.0,83,0.00,BKN,,0.22,WeatherDisplay:10.37,2013-06-17 21:30:00,
2013-06-17 17:40:00,69.8,63.7,29.83,South,170,2.0,5.0,81,0.00,BKN,,0.22,WeatherDisplay:10.37,2013-06-17 21:40:00,
2013-06-17 17:50:00,68.9,63.5,29.84,SSE,167,0.0,3.0,83,0.00,BKN,,0.22,WeatherDisplay:10.37,2013-06-17 21:50:00,
2013-06-17 18:00:00,69.9,64.8,29.84,SSE,167,0.0,3.0,84,0.00,BKN,,0.22,WeatherDisplay:10.37,2013-06-17 22:00:00,
2013-06-17 18:10:00,70.5,64.4,29.83,SSE,167,0.0,3.0,81,0.00,SCT,,0.22,WeatherDisplay:10.37,2013-06-17 22:10:00,
2013-06-17 18:20:00,70.3,63.8,29.83,SSW,198,2.0,6.0,80,0.00,SCT,,0.22,WeatherDisplay:10.37,2013-06-17 22:20:00,
2013-06-17 18:30:00,70.4,63.6,29.83,SSW,201,0.0,6.0,79,0.00,SCT,,0.22,WeatherDisplay:10.37,2013-06-17 22:30:00,
2013-06-17 18:40:00,70.2,63.0,29.83,SSW,207,3.0,5.0,78,0.00,SCT,,0.22,WeatherDisplay:10.37,2013-06-17 22:40:00,
2013-06-17 18:50:00,70.1,62.9,29.84,South,191,0.0,3.0,78,0.00,SCT,,0.22,WeatherDisplay:10.37,2013-06-17 22:50:00,
2013-06-17 19:00:00,70.0,63.2,29.84,South,177,1.0,8.0,79,0.00,SCT,,0.22,WeatherDisplay:10.37,2013-06-17 23:00:00,
2013-06-17 19:10:00,70.3,63.8,29.84,South,174,0.0,3.0,80,0.00,SCT,,0.22,WeatherDisplay:10.37,2013-06-17 23:10:00,
2013-06-17 19:20:00,69.9,63.4,29.84,South,173,0.0,5.0,80,0.00,SCT,,0.22,WeatherDisplay:10.37,2013-06-17 23:20:00,
2013-06-17 19:30:00,69.4,63.4,29.85,South,173,2.0,5.0,81,0.00,SCT,,0.22,WeatherDisplay:10.37,2013-06-17 23:30:00,
2013-06-17 19:40:00,69.2,63.5,29.85,SW,215,0.0,6.0,82,0.00,SCT,,0.22,WeatherDisplay:10.37,2013-06-17 23:40:00,
2013-06-17 19:50:00,69.5,64.1,29.84,WSW,241,0.0,2.0,83,0.00,SCT,,0.22,WeatherDisplay:10.37,2013-06-17 23:50:00,
2013-06-17 20:00:00,68.7,64.0,29.85,WSW,241,0.0,2.0,85,0.00,SCT,,0.22,WeatherDisplay:10.37,2013-06-18 00:00:00,
2013-06-17 20:10:00,67.4,63.7,29.85,WSW,241,0.0,2.0,88,0.00,SCT,,0.22,WeatherDisplay:10.37,2013-06-18 00:10:00,
2013-06-17 20:20:00,66.7,63.4,29.85,WSW,241,0.0,0.0,89,0.00,SCT,,0.22,WeatherDisplay:10.37,2013-06-18 00:20:00,
2013-06-17 20:30:00,66.0,63.0,29.85,WSW,241,0.0,0.0,90,0.00,SCT,,0.22,WeatherDisplay:10.37,2013-06-18 00:30:00,
2013-06-17 20:40:00,65.6,62.9,29.85,WSW,241,0.0,0.0,91,0.00,SCT,,0.22,WeatherDisplay:10.37,2013-06-18 00:40:00,
2013-06-17 20:50:00,64.9,62.6,29.85,WSW,241,0.0,0.0,92,0.00,SCT,,0.22,WeatherDisplay:10.37,2013-06-18 00:50:00,
2013-06-17 21:00:00,64.4,62.0,29.85,WSW,241,0.0,0.0,92,0.00,SCT,,0.22,WeatherDisplay:10.37,2013-06-18 01:00:00,
2013-06-17 21:10:00,64.0,61.9,29.86,WSW,241,0.0,0.0,93,0.00,SCT,,0.22,WeatherDisplay:10.37,2013-06-18 01:10:00,
2013-06-17 21:20:00,63.7,61.6,29.87,WSW,241,0.0,0.0,93,0.00,SCT,,0.22,WeatherDisplay:10.37,2013-06-18 01:20:00,
2013-06-17 21:30:00,63.3,61.2,29.87,WSW,241,0.0,0.0,93,0.00,SCT,,0.22,WeatherDisplay:10.37,2013-06-18 01:30:00,
2013-06-17 21:40:00,62.9,60.9,29.87,WSW,241,0.0,0.0,93,0.00,SCT,,0.22,WeatherDisplay:10.37,2013-06-18 01:40:00,
2013-06-17 21:50:00,62.6,60.5,29.88,WSW,241,0.0,0.0,93,0.00,SCT,,0.22,WeatherDisplay:10.37,2013-06-18 01:50:00,
2013-06-17 22:00:00,62.2,60.5,29.88,WSW,241,0.0,0.0,94,0.00,SCT,,0.22,WeatherDisplay:10.37,2013-06-18 02:00:00,
2013-06-17 22:10:00,62.1,60.4,29.89,WSW,241,0.0,0.0,94,0.00,SCT,,0.22,WeatherDisplay:10.37,2013-06-18 02:10:00,
2013-06-17 22:20:00,62.6,61.1,29.89,WSW,241,0.0,2.0,95,0.00,SCT,,0.22,WeatherDisplay:10.37,2013-06-18 02:20:00,
2013-06-17 22:30:00,63.0,61.5,29.89,WSW,241,0.0,3.0,95,0.00,SCT,,0.22,WeatherDisplay:10.37,2013-06-18 02:30:00,
2013-06-17 22:40:00,62.7,60.9,29.89,WSW,241,0.0,3.0,94,0.00,SCT,,0.22,WeatherDisplay:10.37,2013-06-18 02:40:00,
2013-06-17 22:50:00,62.0,60.3,29.89,WSW,241,0.0,0.0,94,0.00,SCT,,0.22,WeatherDisplay:10.37,2013-06-18 02:50:00,
2013-06-17 23:00:00,61.9,60.2,29.89,WSW,241,0.0,0.0,94,0.00,SCT,,0.22,WeatherDisplay:10.37,2013-06-18 03:00:00,
2013-06-17 23:10:00,62.0,60.2,29.89,WSW,241,0.0,0.0,94,0.00,SCT,,0.22,WeatherDisplay:10.37,2013-06-18 03:10:00,